Time;durP1;ratioP1;P1;durP2;ratioP2;P2;SDS_P1;SDS_P2;PMS_P1;PMS_P2;Temp;Humidity;BMP_temperature;BMP_pressure;BME280_temperature;BME280_humidity;BME280_pressure;Samples;Min_cycle;Max_cycle;Signal;HPM_P1;HPM_P2
2021/04/14 07:00:35;;;;;;;10.77;1.48;;;6.60;91.20;;;;;;6059492;22;20403;-71
2021/04/14 07:05:17;;;;;;;13.23;1.77;;;6.90;90.80;;;;;;5885333;40;20122;-71
2021/04/14 07:09:59;;;;;;;13.68;1.67;;;7.10;90.80;;;;;;5877184;40;20046;-71
2021/04/14 07:14:04;;;;;;;11.43;2.80;;;7.40;90.30;;;;;;5888133;40;20048;-71
2021/04/14 07:18:08;;;;;;;7.63;1.50;;;7.50;90.30;;;;;;5907333;40;20480;-72
2021/04/14 07:22:19;;;;;;;13.18;1.98;;;7.50;90.30;;;;;;5904550;40;20037;-71
2021/04/14 07:26:47;;;;;;;9.43;1.67;;;7.60;90.50;;;;;;5905438;40;20140;-71
2021/04/14 07:31:22;;;;;;;12.45;1.30;;;7.80;90.40;;;;;;5906363;40;20073;-71
2021/04/14 07:35:36;;;;;;;11.60;1.73;;;7.90;90.50;;;;;;5918197;40;20048;-71
2021/04/14 07:40:10;;;;;;;11.80;1.75;;;8.00;89.70;;;;;;5908793;40;20482;-71
2021/04/14 07:44:33;;;;;;;9.32;1.65;;;8.00;90.10;;;;;;5913926;40;20088;-71
2021/04/14 07:48:42;;;;;;;17.30;1.88;;;8.10;90.30;;;;;;5925947;40;20065;-71
2021/04/14 07:52:50;;;;;;;7.68;1.80;;;8.30;90.20;;;;;;5912140;40;20059;-71
2021/04/14 07:56:56;;;;;;;8.15;1.48;;;8.50;89.70;;;;;;5917878;40;20310;-71
2021/04/14 08:01:18;;;;;;;12.25;1.70;;;8.80;89.30;;;;;;5918046;40;20037;-72
2021/04/14 08:05:31;;;;;;;13.48;1.60;;;8.70;87.50;;;;;;5917721;40;20076;-71
2021/04/14 08:09:57;;;;;;;11.57;1.80;;;8.50;88.80;;;;;;5898999;40;20045;-72
2021/04/14 08:14:20;;;;;;;7.85;1.55;;;8.40;89.70;;;;;;5905991;40;20040;-72
2021/04/14 08:18:38;;;;;;;9.75;1.50;;;8.40;89.90;;;;;;5920376;40;20057;-71
2021/04/14 08:22:43;;;;;;;11.37;1.37;;;8.30;90.10;;;;;;5922914;40;20044;-71
2021/04/14 08:26:56;;;;;;;9.18;1.60;;;8.30;90.40;;;;;;5915675;40;20078;-72
2021/04/14 08:31:49;;;;;;;6.65;1.73;;;8.30;89.30;;;;;;5910174;40;20045;-71
2021/04/14 08:36:08;;;;;;;7.32;1.40;;;8.30;88.30;;;;;;5908349;40;20041;-66
2021/04/14 08:40:23;;;;;;;10.88;1.38;;;8.30;88.50;;;;;;5887736;40;20351;-65
2021/04/14 08:44:35;;;;;;;9.63;1.70;;;8.20;88.60;;;;;;5901839;40;20273;-66
2021/04/14 09:02:29;;;;;;;5.22;1.30;;;8.90;86.00;;;;;;5785106;40;20055;-67
2021/04/14 09:06:35;;;;;;;7.38;2.28;;;8.80;86.60;;;;;;5841458;40;20054;-67
2021/04/14 09:11:02;;;;;;;7.30;1.40;;;8.70;85.70;;;;;;5837773;40;20047;-67
2021/04/14 09:15:29;;;;;;;10.40;1.30;;;8.70;86.90;;;;;;5841839;40;20134;-67
2021/04/14 09:19:51;;;;;;;5.18;1.30;;;9.30;87.00;;;;;;5843325;40;20079;-67
2021/04/14 09:24:03;;;;;;;6.40;1.65;;;9.40;84.60;;;;;;5834891;40;20043;-68
2021/04/14 09:28:13;;;;;;;;;;;9.40;84.50;;;;;;5842646;40;20502;-67
2021/04/14 09:32:34;;;;;;;6.45;1.30;;;9.50;83.00;;;;;;5840263;40;19945;-68
2021/04/14 09:36:59;;;;;;;5.53;1.27;;;9.40;85.00;;;;;;5840606;40;20046;-68
2021/04/14 09:41:16;;;;;;;7.70;1.13;;;9.40;86.60;;;;;;5845167;40;20034;-67
2021/04/14 09:45:28;;;;;;;6.95;1.77;;;9.40;86.30;;;;;;5835033;40;20074;-67
2021/04/14 09:49:37;;;;;;;6.32;1.20;;;9.40;85.50;;;;;;5841000;40;20072;-68
2021/04/14 09:53:44;;;;;;;6.95;1.50;;;9.40;86.10;;;;;;5842496;40;20687;-67
2021/04/14 09:57:51;;;;;;;4.75;0.90;;;9.60;84.60;;;;;;5842560;40;20059;-68
2021/04/14 10:02:11;;;;;;;7.03;1.17;;;9.60;84.30;;;;;;5851726;40;20095;-66
2021/04/14 10:06:22;;;;;;;6.13;1.10;;;9.70;85.40;;;;;;5842869;40;20094;-67
2021/04/14 10:10:27;;;;;;;4.43;0.90;;;9.70;83.10;;;;;;5840746;40;20063;-68
2021/04/14 10:14:41;;;;;;;5.10;0.90;;;9.60;84.60;;;;;;5843632;40;20205;-68
2021/04/14 10:18:45;;;;;;;4.93;0.95;;;9.50;83.20;;;;;;5846626;40;20114;-68
2021/04/14 10:22:50;;;;;;;2.35;0.90;;;9.50;80.40;;;;;;5845107;40;20505;-67
2021/04/14 10:26:56;;;;;;;7.00;0.77;;;9.50;79.10;;;;;;5842265;40;20066;-67
2021/04/14 10:31:19;;;;;;;5.43;1.45;;;9.40;77.20;;;;;;5842258;40;20270;-66
2021/04/14 10:35:26;;;;;;;;;;;9.30;76.30;;;;;;5857233;40;20086;-66
2021/04/14 10:39:33;;;;;;;4.03;0.85;;;9.10;61.20;;;;;;5859805;40;19941;-68
2021/04/14 10:43:45;;;;;;;3.80;1.10;;;9.00;78.00;;;;;;5859633;40;20050;-67
2021/04/14 10:47:57;;;;;;;3.63;0.98;;;9.10;79.80;;;;;;5855950;40;20876;-67
2021/04/14 10:52:18;;;;;;;6.72;0.70;;;9.10;77.70;;;;;;5857909;40;20046;-67
2021/04/14 10:56:28;;;;;;;4.75;1.45;;;9.10;79.30;;;;;;5860711;40;20030;-67
2021/04/14 11:00:35;;;;;;;4.68;1.05;;;9.20;79.40;;;;;;5860144;40;20149;-67
2021/04/14 11:04:42;;;;;;;4.85;0.80;;;9.20;76.40;;;;;;5858560;40;20061;-67
2021/04/14 11:08:48;;;;;;;3.10;0.73;;;9.30;78.20;;;;;;5858664;40;20429;-67
2021/04/14 11:12:56;;;;;;;7.57;1.25;;;9.40;78.70;;;;;;5859260;40;20038;-67
2021/04/14 11:17:01;;;;;;;4.75;0.95;;;9.40;77.70;;;;;;5859072;40;20045;-67
2021/04/14 11:21:19;;;;;;;7.45;1.23;;;9.50;79.00;;;;;;5859250;40;20073;-68
2021/04/14 11:25:34;;;;;;;4.07;0.77;;;9.70;76.70;;;;;;5860689;40;20583;-66
2021/04/14 11:29:43;;;;;;;2.85;0.80;;;9.80;76.70;;;;;;5861854;40;20054;-68
2021/04/14 11:33:48;;;;;;;1.90;0.68;;;9.90;76.40;;;;;;5862780;40;20088;-66
2021/04/14 11:37:58;;;;;;;3.90;0.80;;;10.00;76.40;;;;;;5858779;40;20081;-67
2021/04/14 11:42:05;;;;;;;2.63;0.80;;;10.10;75.80;;;;;;5858783;40;20064;-67
2021/04/14 11:46:28;;;;;;;3.05;0.70;;;10.20;72.30;;;;;;5860645;40;20079;-67
2021/04/14 11:50:33;;;;;;;3.88;0.80;;;10.10;72.40;;;;;;5856608;40;20066;-66
2021/04/14 11:54:40;;;;;;;3.65;0.60;;;9.90;69.90;;;;;;5858733;40;20377;-66
2021/04/14 11:58:48;;;;;;;2.85;0.80;;;9.80;74.90;;;;;;5859596;40;20070;-67
2021/04/14 12:03:02;;;;;;;3.55;1.10;;;9.70;76.40;;;;;;5859037;40;20319;-66
2021/04/14 12:07:08;;;;;;;2.42;0.90;;;9.90;77.90;;;;;;5858902;40;20054;-67
2021/04/14 12:11:22;;;;;;;3.25;0.60;;;9.70;79.00;;;;;;5859751;40;20054;-67
2021/04/14 12:15:28;;;;;;;2.92;0.80;;;9.70;79.00;;;;;;5858597;40;20061;-65
2021/04/14 12:19:33;;;;;;;4.95;0.93;;;9.60;79.40;;;;;;5849241;40;20050;-66
2021/04/14 12:23:42;;;;;;;5.50;0.88;;;9.60;79.50;;;;;;5849048;40;23497;-66
2021/04/14 12:27:46;;;;;;;2.55;1.00;;;9.60;80.00;;;;;;5845539;40;20039;-67
2021/04/14 12:31:50;;;;;;;7.18;1.00;;;9.50;81.60;;;;;;5837970;40;20256;-67
2021/04/14 12:35:54;;;;;;;3.38;0.88;;;9.50;81.20;;;;;;5798063;40;20060;-68
2021/04/14 12:39:59;;;;;;;5.22;0.85;;;9.60;81.60;;;;;;5836623;40;20461;-67
2021/04/14 12:44:04;;;;;;;3.53;1.00;;;9.70;81.30;;;;;;5843516;40;20054;-67
2021/04/14 12:48:17;;;;;;;11.35;1.00;;;9.70;79.80;;;;;;5843365;40;20218;-65
2021/04/14 12:52:46;;;;;;;4.05;0.88;;;9.70;74.40;;;;;;5834307;40;20393;-66
2021/04/14 12:56:54;;;;;;;6.10;0.90;;;9.40;70.10;;;;;;5840590;40;20063;-67
2021/04/14 13:01:01;;;;;;;4.57;1.33;;;9.30;77.30;;;;;;5839829;40;20044;-67
2021/04/14 13:05:28;;;;;;;4.93;0.98;;;9.30;78.60;;;;;;5842516;40;20082;-66
2021/04/14 13:09:35;;;;;;;6.13;0.75;;;9.40;79.00;;;;;;5844367;40;20055;-67
2021/04/14 13:13:45;;;;;;;2.03;0.75;;;9.60;78.10;;;;;;5839763;40;20334;-66
2021/04/14 13:17:57;;;;;;;5.82;0.85;;;11.40;77.60;;;;;;5838172;40;20105;-66
2021/04/14 13:22:15;;;;;;;5.10;2.00;;;10.00;76.20;;;;;;5832746;40;20149;-67
2021/04/14 13:26:35;;;;;;;4.53;1.17;;;10.20;77.70;;;;;;5843972;40;20067;-67
2021/04/14 13:30:59;;;;;;;5.55;1.20;;;10.40;76.30;;;;;;5842849;40;20122;-67
2021/04/14 13:35:26;;;;;;;4.57;1.50;;;10.40;76.10;;;;;;5832769;40;20328;-66
2021/04/14 13:39:50;;;;;;;5.28;1.00;;;10.60;77.20;;;;;;5843690;40;20484;-67
2021/04/14 13:44:06;;;;;;;3.03;1.23;;;10.60;75.90;;;;;;5832866;40;20047;-67
2021/04/14 13:48:18;;;;;;;4.93;1.00;;;10.70;75.50;;;;;;5839753;40;20106;-67
2021/04/14 13:52:27;;;;;;;6.45;1.90;;;10.60;76.20;;;;;;5833071;40;20066;-66
2021/04/14 13:56:43;;;;;;;5.33;0.80;;;10.60;76.30;;;;;;5846085;40;20046;-67
2021/04/14 14:00:58;;;;;;;5.40;1.15;;;10.40;76.10;;;;;;5835041;40;20055;-66
2021/04/14 14:05:12;;;;;;;4.87;1.00;;;10.40;75.80;;;;;;5830736;40;20047;-65
2021/04/14 14:09:27;;;;;;;4.47;0.90;;;10.40;76.10;;;;;;5831826;40;20482;-67
2021/04/14 14:13:39;;;;;;;3.72;0.98;;;10.40;75.30;;;;;;5840796;40;20054;-67
2021/04/14 14:17:48;;;;;;;1.73;0.80;;;10.40;75.00;;;;;;5845607;40;20094;-66
2021/04/14 14:21:55;;;;;;;5.28;1.00;;;10.50;75.40;;;;;;5840411;40;20047;-67
2021/04/14 14:26:01;;;;;;;4.05;1.20;;;10.50;75.20;;;;;;5849023;40;20061;-67
2021/04/14 14:30:06;;;;;;;6.18;0.90;;;10.70;74.10;;;;;;5841369;40;20137;-67
2021/04/14 14:34:12;;;;;;;2.88;0.90;;;10.70;73.30;;;;;;5841166;40;20066;-67
2021/04/14 14:38:20;;;;;;;4.97;1.35;;;10.70;72.20;;;;;;5846269;40;20047;-68
2021/04/14 14:42:35;;;;;;;6.65;1.05;;;10.70;73.10;;;;;;5832632;40;20079;-67
2021/04/14 14:46:49;;;;;;;4.07;1.10;;;10.70;70.50;;;;;;5841739;40;20066;-68
2021/04/14 14:51:07;;;;;;;2.83;1.00;;;10.50;74.20;;;;;;5833023;40;20050;-67
2021/04/14 14:55:16;;;;;;;1.58;0.80;;;10.50;72.60;;;;;;5844890;40;20054;-68
2021/04/14 14:59:37;;;;;;;3.35;0.80;;;10.40;67.10;;;;;;5861442;40;20371;-67
2021/04/14 15:03:42;;;;;;;3.10;0.85;;;10.30;70.50;;;;;;5858788;40;20341;-68
2021/04/14 15:07:46;;;;;;;4.05;0.70;;;10.20;72.60;;;;;;5848443;40;20300;-68
2021/04/14 15:11:54;;;;;;;6.82;2.15;;;10.10;67.10;;;;;;5863019;40;20283;-67
2021/04/14 15:15:59;;;;;;;8.88;3.03;;;10.00;67.60;;;;;;5850262;40;20425;-67
2021/04/14 15:20:10;;;;;;;3.25;0.95;;;10.00;69.60;;;;;;5858441;40;20045;-67
2021/04/14 15:24:16;;;;;;;1.48;0.68;;;10.00;70.40;;;;;;5859664;40;20422;-66
2021/04/14 15:28:23;;;;;;;1.85;0.70;;;10.00;67.40;;;;;;5860420;40;20055;-67
2021/04/14 15:32:28;;;;;;;3.83;1.10;;;9.90;67.20;;;;;;5858891;40;20137;-67
2021/04/14 15:36:37;;;;;;;3.45;0.70;;;9.80;69.50;;;;;;5857899;40;20050;-66
2021/04/14 15:40:41;;;;;;;1.90;0.80;;;9.00;70.00;;;;;;5861972;40;20065;-68
2021/04/14 15:44:47;;;;;;;3.60;0.70;;;9.80;68.00;;;;;;5861114;40;20062;-68
2021/04/14 15:48:55;;;;;;;2.63;0.90;;;9.80;68.30;;;;;;5860163;40;20106;-67
2021/04/14 15:53:00;;;;;;;2.15;0.70;;;9.70;62.80;;;;;;5858598;40;20516;-66
2021/04/14 15:57:07;;;;;;;4.07;0.70;;;9.60;64.70;;;;;;5841284;40;20059;-67
2021/04/14 16:01:23;;;;;;;4.20;0.68;;;9.40;64.80;;;;;;5829987;40;20048;-67
2021/04/14 16:05:28;;;;;;;4.45;0.80;;;9.30;65.00;;;;;;5826677;40;20052;-67
2021/04/14 16:09:32;;;;;;;2.30;1.15;;;9.20;63.30;;;;;;5840437;40;20101;-67
2021/04/14 16:13:39;;;;;;;3.17;0.90;;;9.20;63.10;;;;;;5831288;40;20241;-67
2021/04/14 16:17:45;;;;;;;2.67;0.88;;;9.10;64.10;;;;;;5843178;40;20055;-67
2021/04/14 16:21:49;;;;;;;2.67;0.82;;;9.10;61.00;;;;;;5832406;40;20414;-67
2021/04/14 16:25:54;;;;;;;2.95;0.77;;;9.00;66.50;;;;;;5845614;40;20059;-67
2021/04/14 16:29:57;;;;;;;2.85;0.82;;;9.10;67.70;;;;;;5842293;40;20059;-66
2021/04/14 16:34:05;;;;;;;4.00;0.80;;;9.10;64.30;;;;;;5839090;40;20181;-67
2021/04/14 16:38:14;;;;;;;2.92;1.00;;;9.10;66.60;;;;;;5839635;40;20332;-67
2021/04/14 16:42:20;;;;;;;3.33;0.82;;;9.20;68.20;;;;;;5844086;40;20580;-66
2021/04/14 16:46:25;;;;;;;3.45;0.90;;;9.20;68.20;;;;;;5829463;40;20414;-67
2021/04/14 16:50:32;;;;;;;3.03;0.95;;;9.20;69.10;;;;;;5840915;40;20052;-68
2021/04/14 16:54:37;;;;;;;4.70;0.90;;;9.20;69.90;;;;;;5841429;40;20061;-67
2021/04/14 16:58:44;;;;;;;4.97;1.30;;;9.10;71.70;;;;;;5843912;40;20790;-66
2021/04/14 17:02:51;;;;;;;7.13;1.90;;;9.10;72.90;;;;;;5835519;40;20083;-67
2021/04/14 17:06:55;;;;;;;4.78;1.27;;;9.00;73.80;;;;;;5837489;40;20043;-66
2021/04/14 17:10:59;;;;;;;5.07;1.30;;;8.90;74.20;;;;;;5840789;40;20130;-67
2021/04/14 17:15:04;;;;;;;5.20;1.35;;;8.80;74.40;;;;;;5842067;40;20062;-67
2021/04/14 17:19:10;;;;;;;5.13;1.17;;;8.70;74.90;;;;;;5842568;40;20055;-66
2021/04/14 17:23:17;;;;;;;4.60;1.50;;;8.60;75.60;;;;;;5843263;40;20039;-67
2021/04/14 17:27:22;;;;;;;10.85;1.48;;;8.60;76.10;;;;;;5849550;40;20353;-66
2021/04/14 17:31:26;;;;;;;4.80;1.40;;;8.50;76.40;;;;;;5858287;40;20043;-67
2021/04/14 17:35:30;;;;;;;5.32;1.70;;;8.50;76.80;;;;;;5858949;40;20122;-65
2021/04/14 17:39:38;;;;;;;4.55;0.88;;;8.50;77.00;;;;;;5857497;40;20062;-66
2021/04/14 17:43:42;;;;;;;7.22;1.40;;;8.40;77.30;;;;;;5864589;40;20378;-66
2021/04/14 17:47:51;;;;;;;7.05;1.52;;;8.30;77.50;;;;;;5859562;40;20082;-67
2021/04/14 17:51:56;;;;;;;6.43;2.97;;;8.30;78.00;;;;;;5856940;40;20050;-67
2021/04/14 17:56:03;;;;;;;7.40;1.02;;;8.20;77.80;;;;;;5854840;40;20210;-67
2021/04/14 18:00:13;;;;;;;3.42;1.08;;;8.20;78.50;;;;;;5859893;40;20033;-67
2021/04/14 18:04:17;;;;;;;3.53;1.10;;;8.20;78.00;;;;;;5845838;40;20066;-66
2021/04/14 18:08:21;;;;;;;5.07;1.20;;;8.20;78.10;;;;;;5859034;40;20445;-66
2021/04/14 18:12:28;;;;;;;5.30;1.60;;;8.10;78.30;;;;;;5862479;40;20082;-67
2021/04/14 18:16:32;;;;;;;4.95;2.03;;;8.00;78.30;;;;;;5852557;40;20248;-67
2021/04/14 18:20:36;;;;;;;11.68;2.30;;;8.00;78.50;;;;;;5857479;40;20058;-67
2021/04/14 18:24:40;;;;;;;17.30;6.72;;;8.00;78.60;;;;;;5856887;40;20056;-67
2021/04/14 18:28:45;;;;;;;7.80;2.97;;;7.80;79.00;;;;;;5857662;40;20049;-67
2021/04/14 18:32:52;;;;;;;16.00;7.97;;;7.80;79.10;;;;;;5859924;40;20058;-67
2021/04/14 18:36:56;;;;;;;14.45;5.80;;;7.70;79.60;;;;;;5850322;40;20148;-67
2021/04/14 18:41:01;;;;;;;9.30;3.08;;;9.10;80.40;;;;;;5850012;40;20050;-69
2021/04/14 18:45:09;;;;;;;9.05;3.80;;;7.60;79.70;;;;;;5848978;40;20066;-69
2021/04/14 18:49:14;;;;;;;12.02;4.28;;;7.50;79.90;;;;;;5854771;40;20098;-69
2021/04/14 18:53:18;;;;;;;12.18;4.00;;;7.40;79.80;;;;;;5860942;40;20055;-68
2021/04/14 18:57:24;;;;;;;13.60;5.50;;;7.30;79.90;;;;;;5852889;40;20323;-68
2021/04/14 19:01:33;;;;;;;15.25;7.60;;;7.30;80.10;;;;;;5852086;40;20058;-69
2021/04/14 19:05:39;;;;;;;15.27;6.47;;;7.10;80.80;;;;;;5851440;40;20046;-68
2021/04/14 19:09:43;;;;;;;16.00;6.68;;;7.10;80.30;;;;;;5857635;40;20042;-69
2021/04/14 19:13:48;;;;;;;12.63;5.90;;;6.90;80.20;;;;;;5852330;40;20528;-69
2021/04/14 19:17:57;;;;;;;12.73;5.40;;;6.80;80.60;;;;;;5844705;40;20391;-67
2021/04/14 19:22:03;;;;;;;5.50;3.10;;;6.70;80.90;;;;;;5863715;40;20058;-68
2021/04/14 19:26:07;;;;;;;24.30;9.98;;;6.60;81.10;;;;;;5851618;40;20973;-69
2021/04/14 19:30:15;;;;;;;14.00;9.55;;;6.50;81.00;;;;;;5844729;40;20062;-69
2021/04/14 19:34:20;;;;;;;8.65;4.93;;;6.50;81.00;;;;;;5851125;40;20066;-68
2021/04/14 19:38:30;;;;;;;11.40;6.30;;;6.40;81.10;;;;;;5858803;40;20093;-69
2021/04/14 19:42:37;;;;;;;8.70;5.93;;;6.40;81.20;;;;;;5855592;40;20073;-69
2021/04/14 19:46:41;;;;;;;10.07;5.72;;;6.30;81.10;;;;;;5853049;40;20438;-69
2021/04/14 19:50:47;;;;;;;8.32;5.32;;;6.20;81.30;;;;;;5858345;40;20182;-69
2021/04/14 19:54:51;;;;;;;7.78;4.95;;;6.10;81.70;;;;;;5861549;40;20049;-68
2021/04/14 19:58:56;;;;;;;10.57;5.18;;;5.90;81.50;;;;;;5852348;40;20054;-68
2021/04/14 20:03:01;;;;;;;9.88;4.80;;;5.90;81.50;;;;;;5845851;40;20038;-68
2021/04/14 20:07:06;;;;;;;9.07;5.22;;;5.70;81.80;;;;;;5855123;40;20052;-69
2021/04/14 20:11:13;;;;;;;8.60;4.40;;;5.70;81.80;;;;;;5843217;40;24256;-70
2021/04/14 20:15:21;;;;;;;11.30;4.00;;;5.60;81.80;;;;;;5851469;40;20454;-68
2021/04/14 20:19:27;;;;;;;8.02;3.35;;;5.50;81.90;;;;;;5852632;40;20488;-69
2021/04/14 20:23:34;;;;;;;8.93;4.25;;;5.40;82.10;;;;;;5851910;40;20061;-69
2021/04/14 20:27:41;;;;;;;14.43;4.30;;;5.30;82.00;;;;;;5858069;40;20054;-69
2021/04/14 20:31:48;;;;;;;9.05;4.38;;;5.30;82.10;;;;;;5861399;40;20338;-69
2021/04/14 20:35:54;;;;;;;14.48;5.95;;;5.20;82.00;;;;;;5856878;40;20489;-69
2021/04/14 20:40:06;;;;;;;17.42;8.82;;;5.10;82.00;;;;;;5861834;40;21057;-70
2021/04/14 20:44:10;;;;;;;18.38;10.63;;;5.10;82.20;;;;;;5863934;40;20062;-69
2021/04/14 20:48:15;;;;;;;17.85;9.73;;;5.00;82.00;;;;;;5855364;40;20046;-69
2021/04/14 20:52:16;;;;;;;20.42;11.73;;;4.90;82.10;;;;;;5861652;40;20048;-69
2021/04/14 20:56:21;;;;;;;13.95;8.30;;;4.90;82.70;;;;;;5863423;40;20343;-68
2021/04/14 21:00:27;;;;;;;12.45;7.20;;;4.80;82.10;;;;;;5853919;40;20039;-69
2021/04/14 21:04:39;;;;;;;15.35;7.65;;;4.70;82.20;;;;;;5851590;40;20077;-68
2021/04/14 21:08:43;;;;;;;11.40;6.18;;;4.50;82.20;;;;;;5851980;40;20082;-68
2021/04/14 21:12:53;;;;;;;14.30;6.70;;;4.40;82.40;;;;;;5852409;40;20454;-68
2021/04/14 21:16:57;;;;;;;10.32;6.50;;;4.30;82.60;;;;;;5852007;40;20149;-69
2021/04/14 21:21:04;;;;;;;12.48;6.70;;;4.20;82.80;;;;;;5848941;40;20536;-68
2021/04/14 21:25:09;;;;;;;16.38;8.18;;;4.10;82.80;;;;;;5850296;40;20072;-69
2021/04/14 21:29:13;;;;;;;16.85;8.95;;;4.10;83.00;;;;;;5862590;40;20043;-68
2021/04/14 21:33:19;;;;;;;17.92;10.55;;;4.00;83.20;;;;;;5851514;40;20738;-68
2021/04/14 21:37:27;;;;;;;18.45;11.38;;;4.00;83.10;;;;;;5841949;40;20050;-68
2021/04/14 21:41:31;;;;;;;20.25;11.35;;;4.00;82.70;;;;;;5850362;40;20054;-68
2021/04/14 21:45:41;;;;;;;17.25;9.68;;;3.90;82.60;;;;;;5851398;40;20098;-68
2021/04/14 21:49:50;;;;;;;16.50;10.20;;;3.80;82.80;;;;;;5844319;40;20153;-68
2021/04/14 21:53:54;;;;;;;16.13;9.77;;;3.70;82.80;;;;;;5862847;40;20378;-69
2021/04/14 21:57:58;;;;;;;18.08;9.73;;;3.60;82.90;;;;;;5854029;40;20070;-68
2021/04/14 22:02:03;;;;;;;15.50;8.82;;;3.60;83.00;;;;;;5850378;40;20082;-68
2021/04/14 22:06:10;;;;;;;12.70;6.20;;;3.50;82.90;;;;;;5846515;40;20065;-68
2021/04/14 22:10:15;;;;;;;8.63;4.22;;;3.50;83.30;;;;;;5851980;40;20058;-67
2021/04/14 22:14:19;;;;;;;11.05;3.88;;;3.40;85.50;;;;;;5845407;40;20256;-67
2021/04/14 22:18:24;;;;;;;7.88;3.42;;;3.30;86.80;;;;;;5855871;40;20058;-67
2021/04/14 22:22:31;;;;;;;9.52;3.58;;;3.20;85.20;;;;;;5859263;40;20047;-68
2021/04/14 22:26:35;;;;;;;8.57;3.90;;;3.20;84.40;;;;;;5861024;40;20059;-68
2021/04/14 22:30:45;;;;;;;7.20;4.15;;;3.20;84.30;;;;;;5860665;40;20063;-67
2021/04/14 22:34:55;;;;;;;8.80;3.50;;;3.20;84.10;;;;;;5848939;40;20058;-68
2021/04/14 22:39:00;;;;;;;7.30;3.33;;;3.20;83.80;;;;;;5861307;40;20051;-68
2021/04/14 22:43:04;;;;;;;6.53;3.08;;;3.20;83.60;;;;;;5858300;40;20049;-67
2021/04/14 22:47:11;;;;;;;5.60;2.65;;;3.20;84.50;;;;;;5845611;40;20057;-67
2021/04/14 22:51:16;;;;;;;4.82;2.30;;;3.20;85.30;;;;;;5860674;40;20499;-67
2021/04/14 22:55:22;;;;;;;3.97;2.15;;;3.20;87.00;;;;;;5850385;40;20058;-69
2021/04/14 22:59:28;;;;;;;5.22;2.00;;;3.10;88.00;;;;;;5852237;40;20050;-67
2021/04/14 23:03:33;;;;;;;4.97;2.20;;;3.10;86.60;;;;;;5841067;40;20051;-69
2021/04/14 23:07:39;;;;;;;7.28;2.22;;;3.10;86.30;;;;;;5850413;40;20088;-67
2021/04/14 23:11:43;;;;;;;6.10;2.00;;;3.10;86.90;;;;;;5853970;40;20050;-67
2021/04/14 23:15:50;;;;;;;4.03;2.10;;;3.10;88.50;;;;;;5848772;40;20034;-67
2021/04/14 23:19:54;;;;;;;3.63;2.05;;;3.10;85.60;;;;;;5848011;40;20066;-67
2021/04/14 23:24:02;;;;;;;5.70;2.03;;;3.20;84.90;;;;;;5840850;40;20337;-68
2021/04/14 23:28:06;;;;;;;5.38;1.77;;;3.10;84.00;;;;;;5852328;40;20526;-68
2021/04/14 23:32:10;;;;;;;5.70;2.13;;;3.20;83.70;;;;;;5855586;40;20058;-67
2021/04/14 23:36:16;;;;;;;3.92;1.83;;;3.20;83.70;;;;;;5847266;40;20188;-70
2021/04/14 23:40:27;;;;;;;3.45;1.67;;;3.20;83.50;;;;;;5853271;40;20058;-69
2021/04/14 23:44:31;;;;;;;3.97;1.85;;;3.20;83.30;;;;;;5850282;40;20094;-69
2021/04/14 23:48:38;;;;;;;3.85;1.65;;;3.10;83.30;;;;;;5856264;40;20038;-70
2021/04/14 23:52:44;;;;;;;4.88;1.73;;;3.20;83.30;;;;;;5849550;40;20061;-70
2021/04/14 23:56:51;;;;;;;2.75;1.60;;;3.10;83.20;;;;;;5858659;40;20042;-69
